createdAt,value
2022-09-20T00:00:59.855Z,8.375
2022-09-20T00:03:58.612Z,8.375
2022-09-20T00:06:58.798Z,8.5
2022-09-20T00:09:58.914Z,8.625
2022-09-20T00:12:58.673Z,8.687
2022-09-20T00:15:59.103Z,8.75
2022-09-20T00:18:58.868Z,8.75
2022-09-20T00:21:58.527Z,8.812
2022-09-20T00:24:59.150Z,8.75
2022-09-20T00:27:59.208Z,8.687
2022-09-20T00:30:59.350Z,8.5
2022-09-20T00:33:58.852Z,8.375
2022-09-20T00:36:58.529Z,8.562
2022-09-20T00:39:59.506Z,8.437
2022-09-20T00:42:59.339Z,8.437
2022-09-20T00:45:59.705Z,8.375
2022-09-20T00:48:59.092Z,8.312
2022-09-20T00:52:03.693Z,8.437
2022-09-20T00:54:59.210Z,8.375
2022-09-20T00:57:58.497Z,8.5
2022-09-20T01:01:00.144Z,8.437
2022-09-20T01:03:58.485Z,8.5
2022-09-20T01:06:58.753Z,8.437
2022-09-20T01:09:59.001Z,8.437
2022-09-20T01:12:58.753Z,8.312
2022-09-20T01:15:59.765Z,8.312
2022-09-20T01:18:58.856Z,8.187
2022-09-20T01:21:58.868Z,8.187
2022-09-20T01:24:58.755Z,8.125
2022-09-20T01:27:59.077Z,8.125
2022-09-20T01:30:59.210Z,8.125
2022-09-20T01:33:58.795Z,8.0
2022-09-20T01:36:59.488Z,8.062
2022-09-20T01:39:58.864Z,8.0
2022-09-20T01:42:58.554Z,8.0
2022-09-20T01:45:58.976Z,7.937
2022-09-20T01:48:58.794Z,8.062
2022-09-20T01:51:58.496Z,8.125
2022-09-20T01:54:58.796Z,8.125
2022-09-20T01:57:58.470Z,8.187
2022-09-20T02:00:58.426Z,8.125
2022-09-20T02:03:59.589Z,8.125
2022-09-20T02:06:59.181Z,8.125
2022-09-20T02:09:59.010Z,8.125
2022-09-20T02:12:58.896Z,8.125
2022-09-20T02:15:59.168Z,8.125
2022-09-20T02:18:58.982Z,8.125
2022-09-20T02:21:58.961Z,8.125
2022-09-20T02:24:59.144Z,8.125
2022-09-20T02:27:58.556Z,8.062
2022-09-20T02:30:58.756Z,8.062
2022-09-20T02:33:58.673Z,8.062
2022-09-20T02:36:59.106Z,8.062
2022-09-20T02:39:58.791Z,8.062
2022-09-20T02:42:58.600Z,8.187
2022-09-20T02:45:59.760Z,8.187
2022-09-20T02:48:58.901Z,8.125
2022-09-20T02:51:59.074Z,8.25
2022-09-20T02:54:59.254Z,8.125
2022-09-20T02:57:59.400Z,8.125
2022-09-20T03:00:58.942Z,8.125
2022-09-20T03:03:58.822Z,8.125
2022-09-20T03:06:59.256Z,8.062
2022-09-20T03:09:59.528Z,8.125
2022-09-20T03:12:58.564Z,8.062
2022-09-20T03:15:59.908Z,8.062
2022-09-20T03:18:59.061Z,8.062
2022-09-20T03:21:59.015Z,8.062
2022-09-20T03:24:58.809Z,8.062
2022-09-20T03:27:59.104Z,8.0
2022-09-20T03:30:59.594Z,8.0
2022-09-20T03:33:58.987Z,8.062
2022-09-20T03:36:58.679Z,8.062
2022-09-20T03:39:59.135Z,8.0
2022-09-20T03:42:58.936Z,7.937
2022-09-20T03:45:58.555Z,7.937
2022-09-20T03:48:58.950Z,8.0
2022-09-20T03:51:59.098Z,8.0
2022-09-20T03:54:58.744Z,8.0
2022-09-20T03:57:59.081Z,8.0
2022-09-20T04:00:58.817Z,8.0
2022-09-20T04:03:58.855Z,8.0
2022-09-20T04:06:58.538Z,8.0
2022-09-20T04:09:58.547Z,8.0
2022-09-20T04:12:58.504Z,8.0
2022-09-20T04:15:58.429Z,7.937
2022-09-20T04:18:58.937Z,7.937
2022-09-20T04:21:58.316Z,7.875
2022-09-20T04:24:58.954Z,7.937
2022-09-20T04:27:59.279Z,7.937
2022-09-20T04:30:59.303Z,7.875
2022-09-20T04:33:59.221Z,7.875
2022-09-20T04:36:59.095Z,7.875
2022-09-20T04:39:59.027Z,7.812
2022-09-20T04:42:58.999Z,7.75
2022-09-20T04:46:00.045Z,7.75
2022-09-20T04:48:59.230Z,7.75
2022-09-20T04:51:59.566Z,7.75
2022-09-20T04:55:00.116Z,7.687
2022-09-20T04:57:59.387Z,7.687
2022-09-20T05:00:59.828Z,7.687
2022-09-20T05:03:58.838Z,7.687
2022-09-20T05:06:58.741Z,7.687
2022-09-20T05:09:59.525Z,7.687
2022-09-20T05:12:59.684Z,7.812
2022-09-20T05:15:59.600Z,7.812
2022-09-20T05:18:58.479Z,7.75
2022-09-20T05:21:58.813Z,7.687
2022-09-20T05:24:58.949Z,7.687
2022-09-20T05:27:59.421Z,7.687
2022-09-20T05:30:59.372Z,7.687
2022-09-20T05:33:58.522Z,7.75
2022-09-20T05:36:58.934Z,7.75
2022-09-20T05:39:59.359Z,7.75
2022-09-20T05:42:59.126Z,7.75
2022-09-20T05:45:59.911Z,7.75
2022-09-20T05:48:59.030Z,7.75
2022-09-20T05:51:59.117Z,7.687
2022-09-20T05:54:59.055Z,7.75
2022-09-20T05:57:59.135Z,7.687
2022-09-20T06:00:59.647Z,7.687
2022-09-20T06:03:59.146Z,7.687
2022-09-20T06:06:59.452Z,7.687
2022-09-20T06:09:59.384Z,7.687
2022-09-20T06:12:58.904Z,7.687
2022-09-20T06:15:59.660Z,7.687
2022-09-20T06:18:59.555Z,7.812
2022-09-20T06:22:03.055Z,7.875
2022-09-20T06:24:59.491Z,8.0
2022-09-20T06:27:59.556Z,8.125
2022-09-20T06:31:00.038Z,8.0
2022-09-20T06:33:58.933Z,8.062
2022-09-20T06:36:59.204Z,8.437
2022-09-20T06:39:59.477Z,8.375
2022-09-20T06:42:58.981Z,8.375
2022-09-20T06:45:59.327Z,8.375
2022-09-20T06:48:58.258Z,8.375
2022-09-20T06:51:59.099Z,8.375
2022-09-20T06:54:59.209Z,8.5
2022-09-20T06:57:59.035Z,8.437
2022-09-20T07:00:58.873Z,8.312
2022-09-20T07:03:59.260Z,8.312
2022-09-20T07:06:59.139Z,8.375
2022-09-20T07:09:59.106Z,8.375
2022-09-20T07:12:59.591Z,8.562
2022-09-20T07:15:58.970Z,8.75
2022-09-20T07:18:59.221Z,8.875
2022-09-20T07:21:58.917Z,9.0
2022-09-20T07:24:59.365Z,9.0
2022-09-20T07:27:58.745Z,9.125
2022-09-20T07:30:59.581Z,9.75
2022-09-20T07:33:58.504Z,9.75
2022-09-20T07:36:59.491Z,9.375
2022-09-20T07:39:58.622Z,9.375
2022-09-20T07:42:58.850Z,9.125
2022-09-20T07:45:59.157Z,9.625
2022-09-20T07:48:59.252Z,10.125
2022-09-20T07:51:59.501Z,10.125
2022-09-20T07:54:59.067Z,10.125
2022-09-20T07:57:59.272Z,10.125
2022-09-20T08:00:59.465Z,9.875
2022-09-20T08:03:59.004Z,9.875
2022-09-20T08:06:59.330Z,10.562
2022-09-20T08:09:59.581Z,10.25
2022-09-20T08:15:59.156Z,9.875
2022-09-20T08:18:58.187Z,10.0
2022-09-20T08:21:59.283Z,9.937
2022-09-20T08:24:59.188Z,10.25
2022-09-20T08:27:58.972Z,10.125
2022-09-20T08:30:59.742Z,9.75
2022-09-20T08:33:58.806Z,9.937
2022-09-20T08:36:58.862Z,10.5
2022-09-20T08:39:59.540Z,10.5
2022-09-20T08:42:58.969Z,10.625
2022-09-20T08:45:59.791Z,10.187
2022-09-20T08:48:58.652Z,9.812
2022-09-20T08:51:58.915Z,9.625
2022-09-20T08:54:58.886Z,9.562
2022-09-20T08:57:58.880Z,9.562
2022-09-20T09:00:59.396Z,10.0
2022-09-20T09:03:59.490Z,10.5
2022-09-20T09:06:58.431Z,10.312
2022-09-20T09:09:59.478Z,10.25
2022-09-20T09:12:58.773Z,9.937
2022-09-20T09:15:59.346Z,9.937
2022-09-20T09:18:59.195Z,9.875
2022-09-20T09:21:59.300Z,9.937
2022-09-20T09:24:59.466Z,9.875
2022-09-20T09:27:58.545Z,9.75
2022-09-20T09:30:59.253Z,9.875
2022-09-20T09:33:59.383Z,9.937
2022-09-20T09:36:59.096Z,10.0
2022-09-20T09:39:59.893Z,10.187
2022-09-20T09:42:59.348Z,10.187
2022-09-20T09:45:59.183Z,11.312
2022-09-20T09:48:58.791Z,12.312
2022-09-20T09:51:58.909Z,12.437
2022-09-20T09:55:02.362Z,12.937
2022-09-20T09:57:59.635Z,12.937
2022-09-20T10:00:59.197Z,13.562
2022-09-20T10:03:59.470Z,13.562
2022-09-20T10:06:58.994Z,12.75
2022-09-20T10:09:59.570Z,12.375
2022-09-20T10:12:59.380Z,12.062
2022-09-20T10:15:59.421Z,13.437
2022-09-20T10:18:58.455Z,14.0
2022-09-20T10:21:58.395Z,12.312
2022-09-20T10:24:58.617Z,12.312
2022-09-20T10:27:58.400Z,11.125
2022-09-20T10:30:58.584Z,10.75
2022-09-20T10:33:58.649Z,10.812
2022-09-20T10:36:58.367Z,11.187
2022-09-20T10:39:59.706Z,11.187
2022-09-20T10:42:58.194Z,14.062
2022-09-20T10:46:27.622Z,14.25
2022-09-20T10:48:59.045Z,14.25
2022-09-20T10:51:58.495Z,13.062
2022-09-20T10:54:59.435Z,12.812
2022-09-20T10:57:58.812Z,12.187
2022-09-20T11:00:58.882Z,12.312
2022-09-20T11:04:17.892Z,12.5
2022-09-20T11:06:59.430Z,12.5
2022-09-20T11:09:58.657Z,12.062
2022-09-20T11:12:58.856Z,11.625
2022-09-20T11:15:58.961Z,11.75
2022-09-20T11:18:58.852Z,11.375
2022-09-20T11:21:59.123Z,11.687
2022-09-20T11:24:59.064Z,12.562
2022-09-20T11:27:58.990Z,14.437
2022-09-20T11:30:59.064Z,15.187
2022-09-20T11:33:58.320Z,12.875
2022-09-20T11:36:58.522Z,12.25
2022-09-20T11:39:59.716Z,11.687
2022-09-20T11:42:58.908Z,11.687
2022-09-20T11:45:58.931Z,11.75
2022-09-20T11:48:58.395Z,13.0
2022-09-20T11:51:58.816Z,13.375
2022-09-20T11:54:59.083Z,14.5
2022-09-20T11:57:59.043Z,14.062
2022-09-20T12:01:00.006Z,14.437
2022-09-20T12:04:20.574Z,14.187
2022-09-20T12:06:58.802Z,14.187
2022-09-20T12:09:58.943Z,14.187
2022-09-20T12:12:59.063Z,11.437
2022-09-20T12:15:58.977Z,11.437
2022-09-20T12:18:59.115Z,11.437
2022-09-20T12:21:58.865Z,11.062
2022-09-20T12:24:58.896Z,10.937
2022-09-20T12:27:59.088Z,10.937
2022-09-20T12:30:59.511Z,10.937
2022-09-20T12:33:59.303Z,10.937
2022-09-20T12:36:59.385Z,10.687
2022-09-20T12:39:59.508Z,10.625
2022-09-20T12:42:59.520Z,10.812
2022-09-20T12:46:04.517Z,10.812
2022-09-20T12:48:58.413Z,11.25
2022-09-20T12:51:59.318Z,10.937
2022-09-20T12:55:03.109Z,10.625
2022-09-20T12:57:59.225Z,10.625
2022-09-20T13:00:59.360Z,11.187
2022-09-20T13:03:59.163Z,11.875
2022-09-20T13:06:58.637Z,11.437
2022-09-20T13:09:59.208Z,11.562
2022-09-20T13:12:59.701Z,11.562
2022-09-20T13:15:58.870Z,11.687
2022-09-20T13:18:58.977Z,12.187
2022-09-20T13:21:58.784Z,13.187
2022-09-20T13:24:58.876Z,13.812
2022-09-20T13:27:58.812Z,14.062
2022-09-20T13:30:59.705Z,14.062
2022-09-20T13:33:58.990Z,14.062
2022-09-20T13:36:59.378Z,14.062
2022-09-20T13:39:59.641Z,14.0
2022-09-20T13:43:22.150Z,13.875
2022-09-20T13:45:59.098Z,14.062
2022-09-20T13:48:59.295Z,13.562
2022-09-20T13:51:58.717Z,14.75
2022-09-20T13:54:58.355Z,15.062
2022-09-20T13:57:58.439Z,15.062
2022-09-20T14:00:59.080Z,12.937
2022-09-20T14:03:59.533Z,13.125
2022-09-20T14:06:59.220Z,13.125
2022-09-20T14:09:58.319Z,13.875
2022-09-20T14:12:59.456Z,14.0
2022-09-20T14:15:59.480Z,12.625
2022-09-20T14:18:59.163Z,11.812
2022-09-20T14:21:58.918Z,11.187
2022-09-20T14:24:59.903Z,10.125
2022-09-20T14:27:59.392Z,9.75
2022-09-20T14:30:59.758Z,9.625
2022-09-20T14:33:59.352Z,9.625
2022-09-20T14:36:59.737Z,9.562
2022-09-20T14:39:59.895Z,9.562
2022-09-20T14:42:58.820Z,9.562
2022-09-20T14:45:59.729Z,9.562
2022-09-20T14:48:59.197Z,9.75
2022-09-20T14:51:58.792Z,9.687
2022-09-20T14:54:58.798Z,9.562
2022-09-20T14:57:58.493Z,9.562
2022-09-20T15:00:59.643Z,9.5
2022-09-20T15:03:59.075Z,9.562
2022-09-20T15:06:58.539Z,9.562
2022-09-20T15:09:58.787Z,9.5
2022-09-20T15:12:58.728Z,9.5
2022-09-20T15:15:58.618Z,9.5
2022-09-20T15:18:58.890Z,9.562
2022-09-20T15:21:59.107Z,9.562
2022-09-20T15:24:59.246Z,9.875
2022-09-20T15:27:58.822Z,10.0
2022-09-20T15:30:59.083Z,10.0
2022-09-20T15:33:58.378Z,10.062
2022-09-20T15:36:59.563Z,10.0
2022-09-20T15:40:01.076Z,9.937
2022-09-20T15:42:59.132Z,10.062
2022-09-20T15:45:59.432Z,10.062
2022-09-20T15:48:59.802Z,10.187
2022-09-20T15:51:59.601Z,10.25
2022-09-20T15:54:58.808Z,10.25
2022-09-20T15:57:59.887Z,10.25
2022-09-20T16:00:59.480Z,10.0
2022-09-20T16:03:59.417Z,10.0
2022-09-20T16:06:59.682Z,10.062
2022-09-20T16:10:00.019Z,9.937
2022-09-20T16:12:59.244Z,9.687
2022-09-20T16:15:59.396Z,9.875
2022-09-20T16:18:59.446Z,9.875
2022-09-20T16:21:59.573Z,9.687
2022-09-20T16:24:59.287Z,9.375
2022-09-20T16:27:59.357Z,9.375
2022-09-20T16:31:00.546Z,8.687
2022-09-20T16:33:59.626Z,8.5
2022-09-20T16:36:59.094Z,8.5
2022-09-20T16:39:59.361Z,8.312
2022-09-20T16:42:59.422Z,8.25
2022-09-20T16:45:59.281Z,8.25
2022-09-20T16:49:00.533Z,8.25
2022-09-20T16:51:59.461Z,8.0
2022-09-20T16:54:59.115Z,8.0
2022-09-20T16:57:59.270Z,7.937
2022-09-20T17:00:59.083Z,7.937
2022-09-20T17:03:59.188Z,8.0
2022-09-20T17:06:59.614Z,8.187
2022-09-20T17:09:59.286Z,8.187
2022-09-20T17:12:59.648Z,8.187
2022-09-20T17:15:58.999Z,7.937
2022-09-20T17:18:58.587Z,7.937
2022-09-20T17:21:58.743Z,7.812
2022-09-20T17:24:58.889Z,7.875
2022-09-20T17:27:59.547Z,7.75
2022-09-20T17:30:59.775Z,7.812
2022-09-20T17:33:59.149Z,7.812
2022-09-20T17:36:58.856Z,7.812
2022-09-20T17:39:58.818Z,7.812
2022-09-20T17:42:58.779Z,7.875
2022-09-20T17:45:58.603Z,7.812
2022-09-20T17:48:59.226Z,7.875
2022-09-20T17:51:59.227Z,7.875
2022-09-20T17:54:59.078Z,8.125
2022-09-20T17:57:59.088Z,8.125
2022-09-20T18:01:26.141Z,8.187
2022-09-20T18:03:58.898Z,8.187
2022-09-20T18:06:59.207Z,8.187
2022-09-20T18:09:59.175Z,8.125
2022-09-20T18:12:59.482Z,7.937
2022-09-20T18:15:59.959Z,7.937
2022-09-20T18:18:59.218Z,7.937
2022-09-20T18:21:59.364Z,7.937
2022-09-20T18:24:58.926Z,7.875
2022-09-20T18:27:59.472Z,7.937
2022-09-20T18:30:58.718Z,7.875
2022-09-20T18:33:59.063Z,7.812
2022-09-20T18:36:59.420Z,7.812
2022-09-20T18:39:59.562Z,7.812
2022-09-20T18:43:03.693Z,7.75
2022-09-20T18:45:59.954Z,7.812
2022-09-20T18:48:58.662Z,7.812
2022-09-20T18:51:59.242Z,7.75
2022-09-20T18:54:59.319Z,7.625
2022-09-20T18:58:01.481Z,7.625
2022-09-20T19:01:00.061Z,7.625
2022-09-20T19:03:59.512Z,7.437
2022-09-20T19:06:59.047Z,7.5
2022-09-20T19:09:58.531Z,7.5
2022-09-20T19:12:59.321Z,7.437
2022-09-20T19:15:59.390Z,7.5
2022-09-20T19:18:58.444Z,7.5
2022-09-20T19:21:58.701Z,7.437
2022-09-20T19:24:58.973Z,7.375
2022-09-20T19:27:58.427Z,7.312
2022-09-20T19:30:59.756Z,7.312
2022-09-20T19:33:59.033Z,7.312
2022-09-20T19:36:59.141Z,7.312
2022-09-20T19:39:59.682Z,7.437
2022-09-20T19:42:58.716Z,7.5
2022-09-20T19:45:58.647Z,7.5
2022-09-20T19:48:58.697Z,7.5
2022-09-20T19:51:58.574Z,7.5
2022-09-20T19:54:59.212Z,7.5
2022-09-20T19:57:58.677Z,7.375
2022-09-20T20:00:59.482Z,7.375
2022-09-20T20:03:59.286Z,7.375
2022-09-20T20:06:58.420Z,7.25
2022-09-20T20:09:59.724Z,7.25
2022-09-20T20:12:58.823Z,7.125
2022-09-20T20:15:58.608Z,7.187
2022-09-20T20:18:59.098Z,7.187
2022-09-20T20:21:58.874Z,7.062
2022-09-20T20:24:59.626Z,7.062
2022-09-20T20:27:58.669Z,6.875
2022-09-20T20:31:00.076Z,6.812
2022-09-20T20:33:59.610Z,6.812
2022-09-20T20:36:58.782Z,6.812
2022-09-20T20:39:59.741Z,6.875
2022-09-20T20:42:59.274Z,6.812
2022-09-20T20:45:59.713Z,6.687
2022-09-20T20:48:59.140Z,6.625
2022-09-20T20:51:58.807Z,6.625
2022-09-20T20:54:59.058Z,6.625
2022-09-20T20:57:59.041Z,6.687
2022-09-20T21:00:58.802Z,6.75
2022-09-20T21:03:59.594Z,6.625
2022-09-20T21:06:59.167Z,6.5
2022-09-20T21:09:58.804Z,6.312
2022-09-20T21:12:58.699Z,6.25
2022-09-20T21:15:59.518Z,6.25
2022-09-20T21:18:59.288Z,6.25
2022-09-20T21:21:59.425Z,6.25
2022-09-20T21:24:59.179Z,6.062
2022-09-20T21:27:59.273Z,5.937
2022-09-20T21:31:02.860Z,5.937
2022-09-20T21:33:59.425Z,5.812
2022-09-20T21:36:59.138Z,5.75
2022-09-20T21:39:59.123Z,5.562
2022-09-20T21:42:59.084Z,5.562
2022-09-20T21:45:58.948Z,5.375
2022-09-20T21:48:58.817Z,5.375
2022-09-20T21:51:58.901Z,5.312
2022-09-20T21:54:58.877Z,5.312
2022-09-20T21:57:58.773Z,5.062
2022-09-20T22:00:59.712Z,4.937
2022-09-20T22:03:58.782Z,4.937
2022-09-20T22:06:59.071Z,4.75
2022-09-20T22:09:59.222Z,4.75
2022-09-20T22:12:58.188Z,4.687
2022-09-20T22:15:58.920Z,4.75
2022-09-20T22:18:58.650Z,4.812
2022-09-20T22:21:58.737Z,4.812
2022-09-20T22:24:58.398Z,4.625
2022-09-20T22:27:58.330Z,4.625
2022-09-20T22:30:58.966Z,4.687
2022-09-20T22:33:58.550Z,4.5
2022-09-20T22:36:58.320Z,4.5
2022-09-20T22:39:59.372Z,4.5
2022-09-20T22:42:58.417Z,4.5
2022-09-20T22:45:58.539Z,4.5
2022-09-20T22:48:59.065Z,4.125
2022-09-20T22:51:58.233Z,4.187
2022-09-20T22:54:58.554Z,4.375
2022-09-20T22:57:58.907Z,4.5
2022-09-20T23:00:59.393Z,4.5
2022-09-20T23:03:59.219Z,4.375
2022-09-20T23:06:58.859Z,4.375
2022-09-20T23:09:58.809Z,4.625
2022-09-20T23:12:58.899Z,4.437
2022-09-20T23:15:59.320Z,4.437
2022-09-20T23:18:58.702Z,4.437
2022-09-20T23:21:58.661Z,4.375
2022-09-20T23:24:59.635Z,4.187
2022-09-20T23:27:58.834Z,4.187
2022-09-20T23:31:19.178Z,4.062
2022-09-20T23:33:58.485Z,4.062
2022-09-20T23:36:58.653Z,4.25
2022-09-20T23:39:59.463Z,4.187
2022-09-20T23:42:58.498Z,4.0
2022-09-20T23:45:59.190Z,4.0
2022-09-20T23:48:58.908Z,3.875
2022-09-20T23:51:59.175Z,4.125
2022-09-20T23:54:59.257Z,4.125
2022-09-20T23:57:58.191Z,3.937
